Station Historical Data
Daily Summary for March 5, 2017 Units:  Both    English   Metric
« Previous Day
Next Day »
Daily Weekly Monthly Yearly Custom
  High: Low: Average:
Temperature: 36.9 °F /  2.7 °C 6.8 °F /  -14 °C 22 °F /  -5.6 °C
Dew Point: 15.1 °F /  -9.4 °C 1.3 °F /  -17.1 °C 7.4 °F /  -13.7 °C
Humidity: 79% 28% 56%
Wind Speed: 9.0mph /  14.5km/h - 2.4mph /  3.9km/h
Wind Gust: 15.0mph /  24.1km/h - -
Wind- - East
Pressure: 30.78 in /  1042.2 hPa 30.39 in /  1029 hPa -
Precipitation: 0.00 in /  0 mm    
Historical Graphs
 
 
Tabular Data for March 5, 2017
Time Temperature Dew Point Pressure Wind Wind Speed Wind Gust Humidity Rainfall Rate (Hourly)
00:04 10.2 °F /  -12.1 °C 2.0 °F /  -16.7 °C 30.75in /  1041.2hPa Calm     69% 0.00in /  0mm
00:09 10.3 °F /  -12.1 °C 2.4 °F /  -16.4 °C 30.75in /  1041.2hPa Calm     70% 0.00in /  0mm
00:14 10.3 °F /  -12.1 °C 2.4 °F /  -16.4 °C 30.75in /  1041.2hPa Calm   2.0mph /  3.2km/h 70% 0.00in /  0mm
00:19 10.1 °F /  -12.2 °C 2.3 °F /  -16.5 °C 30.75in /  1041.2hPa Calm   2.0mph /  3.2km/h 70% 0.00in /  0mm
00:24 9.9 °F /  -12.3 °C 2.1 °F /  -16.6 °C 30.75in /  1041.2hPa Calm   2.0mph /  3.2km/h 70% 0.00in /  0mm
00:29 10.1 °F /  -12.2 °C 1.9 °F /  -16.7 °C 30.75in /  1041.2hPa Calm   2.0mph /  3.2km/h 69% 0.00in /  0mm
00:34 10.1 °F /  -12.2 °C 1.9 °F /  -16.7 °C 30.75in /  1041.2hPa Calm   2.0mph /  3.2km/h 69% 0.00in /  0mm
00:39 9.9 °F /  -12.3 °C 1.8 °F /  -16.8 °C 30.75in /  1041.2hPa Calm     69% 0.00in /  0mm
00:44 9.8 °F /  -12.3 °C 2.3 °F /  -16.5 °C 30.75in /  1041.2hPa Calm     71% 0.00in /  0mm
00:49 9.7 °F /  -12.4 °C 2.2 °F /  -16.6 °C 30.75in /  1041.2hPa Calm     71% 0.00in /  0mm
00:54 9.7 °F /  -12.4 °C 2.2 °F /  -16.6 °C 30.76in /  1041.5hPa Calm     71% 0.00in /  0mm
00:59 9.5 °F /  -12.5 °C 2.3 °F /  -16.5 °C 30.76in /  1041.5hPa Calm     72% 0.00in /  0mm
01:05 9.6 °F /  -12.4 °C 2.4 °F /  -16.4 °C 30.76in /  1041.5hPa Calm     72% 0.00in /  0mm
01:10 9.6 °F /  -12.4 °C 2.7 °F /  -16.3 °C 30.76in /  1041.5hPa Calm     73% 0.00in /  0mm
01:15 9.6 °F /  -12.4 °C 2.7 °F /  -16.3 °C 30.76in /  1041.5hPa Calm     73% 0.00in /  0mm
01:20 9.4 °F /  -12.6 °C 2.5 °F /  -16.4 °C 30.76in /  1041.5hPa Calm     73% 0.00in /  0mm
01:25 9.3 °F /  -12.6 °C 2.4 °F /  -16.4 °C 30.76in /  1041.5hPa Calm     73% 0.00in /  0mm
01:30 9.3 °F /  -12.6 °C 2.4 °F /  -16.4 °C 30.76in /  1041.5hPa Calm     73% 0.00in /  0mm
01:35 9.6 °F /  -12.4 °C 2.7 °F /  -16.3 °C 30.76in /  1041.5hPa Calm     73% 0.00in /  0mm
01:40 9.4 °F /  -12.6 °C 2.5 °F /  -16.4 °C 30.76in /  1041.5hPa Calm     73% 0.00in /  0mm
01:45 9.3 °F /  -12.6 °C 2.7 °F /  -16.3 °C 30.76in /  1041.5hPa Calm     74% 0.00in /  0mm
01:50 9.2 °F /  -12.7 °C 2.6 °F /  -16.3 °C 30.76in /  1041.5hPa Calm     74% 0.00in /  0mm
01:55 9.3 °F /  -12.6 °C 2.7 °F /  -16.3 °C 30.76in /  1041.5hPa Calm     74% 0.00in /  0mm
02:00 9.3 °F /  -12.6 °C 2.7 °F /  -16.3 °C 30.77in /  1041.9hPa Calm     74% 0.00in /  0mm
02:05 9.3 °F /  -12.6 °C 3.0 °F /  -16.1 °C 30.76in /  1041.5hPa Calm     75% 0.00in /  0mm
02:10 9.3 °F /  -12.6 °C 3.0 °F /  -16.1 °C 30.77in /  1041.9hPa Calm     75% 0.00in /  0mm
02:15 9.4 °F /  -12.6 °C 3.1 °F /  -16.1 °C 30.76in /  1041.5hPa Calm     75% 0.00in /  0mm
02:20 9.3 °F /  -12.6 °C 3.0 °F /  -16.1 °C 30.76in /  1041.5hPa Calm     75% 0.00in /  0mm
02:25 9.3 °F /  -12.6 °C 3.3 °F /  -15.9 °C 30.77in /  1041.9hPa Calm     76% 0.00in /  0mm
02:30 9.3 °F /  -12.6 °C 3.3 °F /  -15.9 °C 30.77in /  1041.9hPa Calm   2.0mph /  3.2km/h 76% 0.00in /  0mm
02:35 9.2 °F /  -12.7 °C 3.2 °F /  -16 °C 30.77in /  1041.9hPa Calm   2.0mph /  3.2km/h 76% 0.00in /  0mm
02:40 9.2 °F /  -12.7 °C 3.2 °F /  -16 °C 30.77in /  1041.9hPa Calm     76% 0.00in /  0mm
02:45 9.2 °F /  -12.7 °C 3.2 °F /  -16 °C 30.77in /  1041.9hPa Calm   1.0mph /  1.6km/h 76% 0.00in /  0mm
02:50 9.5 °F /  -12.5 °C 3.2 °F /  -16 °C 30.76in /  1041.5hPa Calm     75% 0.00in /  0mm
02:55 9.8 °F /  -12.3 °C 3.2 °F /  -16 °C 30.76in /  1041.5hPa Calm     74% 0.00in /  0mm
03:00 9.9 °F /  -12.3 °C 3.3 °F /  -15.9 °C 30.76in /  1041.5hPa Calm     74% 0.00in /  0mm
03:05 9.9 °F /  -12.3 °C 3.3 °F /  -15.9 °C 30.76in /  1041.5hPa Calm     74% 0.00in /  0mm
03:10 9.8 °F /  -12.3 °C 2.9 °F /  -16.2 °C 30.76in /  1041.5hPa Calm     73% 0.00in /  0mm
03:15 9.5 °F /  -12.5 °C 2.9 °F /  -16.2 °C 30.76in /  1041.5hPa Calm     74% 0.00in /  0mm
03:20 9.5 °F /  -12.5 °C 3.2 °F /  -16 °C 30.76in /  1041.5hPa Calm     75% 0.00in /  0mm
03:25 9.6 °F /  -12.4 °C 3.3 °F /  -15.9 °C 30.76in /  1041.5hPa Calm     75% 0.00in /  0mm
03:30 9.4 °F /  -12.6 °C 3.1 °F /  -16.1 °C 30.77in /  1041.9hPa Calm     75% 0.00in /  0mm
03:35 9.3 °F /  -12.6 °C 3.3 °F /  -15.9 °C 30.77in /  1041.9hPa Calm     76% 0.00in /  0mm
03:40 9.2 °F /  -12.7 °C 3.2 °F /  -16 °C 30.77in /  1041.9hPa Calm     76% 0.00in /  0mm
03:45 9.1 °F /  -12.7 °C 3.4 °F /  -15.9 °C 30.76in /  1041.5hPa Calm     77% 0.00in /  0mm
03:50 9.1 °F /  -12.7 °C 3.4 °F /  -15.9 °C 30.77in /  1041.9hPa SE 1.0mph /  1.6km/h 2.0mph /  3.2km/h 77% 0.00in /  0mm
03:55 9.0 °F /  -12.8 °C 3.3 °F /  -15.9 °C 30.77in /  1041.9hPa Calm   2.0mph /  3.2km/h 77% 0.00in /  0mm
04:00 9.0 °F /  -12.8 °C 3.5 °F /  -15.8 °C 30.77in /  1041.9hPa SE 2.0mph /  3.2km/h 2.0mph /  3.2km/h 78% 0.00in /  0mm
04:05 8.9 °F /  -12.8 °C 3.4 °F /  -15.9 °C 30.77in /  1041.9hPa Calm   2.0mph /  3.2km/h 78% 0.00in /  0mm
04:10 8.8 °F /  -12.9 °C 3.3 °F /  -15.9 °C 30.77in /  1041.9hPa SE 1.0mph /  1.6km/h 2.0mph /  3.2km/h 78% 0.00in /  0mm
04:15 8.6 °F /  -13 °C 3.1 °F /  -16.1 °C 30.77in /  1041.9hPa Calm   2.0mph /  3.2km/h 78% 0.00in /  0mm
04:19 8.5 °F /  -13.1 °C 3.0 °F /  -16.1 °C 30.77in /  1041.9hPa Calm   2.0mph /  3.2km/h 78% 0.00in /  0mm
04:25 8.3 °F /  -13.2 °C 2.9 °F /  -16.2 °C 30.77in /  1041.9hPa Calm     78% 0.00in /  0mm
04:30 8.2 °F /  -13.2 °C 2.8 °F /  -16.2 °C 30.77in /  1041.9hPa Calm     78% 0.00in /  0mm
04:35 8.1 °F /  -13.3 °C 2.7 °F /  -16.3 °C 30.77in /  1041.9hPa Calm     78% 0.00in /  0mm
04:40 8.0 °F /  -13.3 °C 2.6 °F /  -16.3 °C 30.78in /  1042.2hPa Calm     78% 0.00in /  0mm
04:45 7.9 °F /  -13.4 °C 2.5 °F /  -16.4 °C 30.77in /  1041.9hPa Calm     78% 0.00in /  0mm
04:50 7.9 °F /  -13.4 °C 2.7 °F /  -16.3 °C 30.77in /  1041.9hPa Calm     79% 0.00in /  0mm
04:55 7.8 °F /  -13.4 °C 2.6 °F /  -16.3 °C 30.77in /  1041.9hPa Calm     79% 0.00in /  0mm
05:00 7.9 °F /  -13.4 °C 2.7 °F /  -16.3 °C 30.77in /  1041.9hPa Calm     79% 0.00in /  0mm
05:04 8.0 °F /  -13.3 °C 2.8 °F /  -16.2 °C 30.77in /  1041.9hPa Calm   2.0mph /  3.2km/h 79% 0.00in /  0mm
05:09 8.1 °F /  -13.3 °C 2.9 °F /  -16.2 °C 30.77in /  1041.9hPa East 1.0mph /  1.6km/h 3.0mph /  4.8km/h 79% 0.00in /  0mm
05:15 7.9 °F /  -13.4 °C 2.7 °F /  -16.3 °C 30.76in /  1041.5hPa SE 1.0mph /  1.6km/h 2.0mph /  3.2km/h 79% 0.00in /  0mm
05:19 7.8 °F /  -13.4 °C 2.6 °F /  -16.3 °C 30.76in /  1041.5hPa ESE 1.0mph /  1.6km/h 3.0mph /  4.8km/h 79% 0.00in /  0mm
05:25 7.6 °F /  -13.6 °C 2.2 °F /  -16.6 °C 30.76in /  1041.5hPa ESE 1.0mph /  1.6km/h 3.0mph /  4.8km/h 78% 0.00in /  0mm
05:30 7.6 °F /  -13.6 °C 2.2 °F /  -16.6 °C 30.76in /  1041.5hPa ESE 1.0mph /  1.6km/h 3.0mph /  4.8km/h 78% 0.00in /  0mm
05:35 7.4 °F /  -13.7 °C 2.0 °F /  -16.7 °C 30.76in /  1041.5hPa SE 2.0mph /  3.2km/h 3.0mph /  4.8km/h 78% 0.00in /  0mm
05:40 7.2 °F /  -13.8 °C 1.8 °F /  -16.8 °C 30.76in /  1041.5hPa ESE 1.0mph /  1.6km/h 3.0mph /  4.8km/h 78% 0.00in /  0mm
05:45 7.1 °F /  -13.8 °C 1.7 °F /  -16.8 °C 30.76in /  1041.5hPa Calm   3.0mph /  4.8km/h 78% 0.00in /  0mm
05:49 7.0 °F /  -13.9 °C 1.6 °F /  -16.9 °C 30.75in /  1041.2hPa ESE 1.0mph /  1.6km/h 6.0mph /  9.7km/h 78% 0.00in /  0mm
05:55 7.0 °F /  -13.9 °C 1.6 °F /  -16.9 °C 30.75in /  1041.2hPa ESE 1.0mph /  1.6km/h 6.0mph /  9.7km/h 78% 0.00in /  0mm
06:00 7.0 °F /  -13.9 °C 1.6 °F /  -16.9 °C 30.75in /  1041.2hPa ESE 2.0mph /  3.2km/h 6.0mph /  9.7km/h 78% 0.00in /  0mm
06:05 6.9 °F /  -13.9 °C 1.5 °F /  -16.9 °C 30.75in /  1041.2hPa ESE 2.0mph /  3.2km/h 6.0mph /  9.7km/h 78% 0.00in /  0mm
06:10 7.0 °F /  -13.9 °C 1.6 °F /  -16.9 °C 30.75in /  1041.2hPa ESE 1.0mph /  1.6km/h 5.0mph /  8km/h 78% 0.00in /  0mm
06:15 6.9 °F /  -13.9 °C 1.5 °F /  -16.9 °C 30.75in /  1041.2hPa East 2.0mph /  3.2km/h 7.0mph /  11.3km/h 78% 0.00in /  0mm
06:19 6.9 °F /  -13.9 °C 1.5 °F /  -16.9 °C 30.75in /  1041.2hPa East 2.0mph /  3.2km/h 7.0mph /  11.3km/h 78% 0.00in /  0mm
06:24 6.9 °F /  -13.9 °C 1.5 °F /  -16.9 °C 30.75in /  1041.2hPa ESE 2.0mph /  3.2km/h 6.0mph /  9.7km/h 78% 0.00in /  0mm
06:29 6.8 °F /  -14 °C 1.4 °F /  -17 °C 30.76in /  1041.5hPa SE 2.0mph /  3.2km/h 4.0mph /  6.4km/h 78% 0.00in /  0mm
06:34 6.9 °F /  -13.9 °C 1.5 °F /  -16.9 °C 30.76in /  1041.5hPa Calm   3.0mph /  4.8km/h 78% 0.00in /  0mm
06:39 6.9 °F /  -13.9 °C 1.5 °F /  -16.9 °C 30.76in /  1041.5hPa SE 2.0mph /  3.2km/h 3.0mph /  4.8km/h 78% 0.00in /  0mm
06:44 7.0 °F /  -13.9 °C 1.3 °F /  -17.1 °C 30.76in /  1041.5hPa ESE 1.0mph /  1.6km/h 3.0mph /  4.8km/h 77% 0.00in /  0mm
06:49 7.0 °F /  -13.9 °C 1.3 °F /  -17.1 °C 30.76in /  1041.5hPa ESE 1.0mph /  1.6km/h 3.0mph /  4.8km/h 77% 0.00in /  0mm
06:54 7.0 °F /  -13.9 °C 1.3 °F /  -17.1 °C 30.76in /  1041.5hPa ESE 1.0mph /  1.6km/h 3.0mph /  4.8km/h 77% 0.00in /  0mm
07:00 7.1 °F /  -13.8 °C 1.4 °F /  -17 °C 30.76in /  1041.5hPa SSE 3.0mph /  4.8km/h 4.0mph /  6.4km/h 77% 0.00in /  0mm
07:05 7.2 °F /  -13.8 °C 1.5 °F /  -16.9 °C 30.76in /  1041.5hPa SSE 2.0mph /  3.2km/h 4.0mph /  6.4km/h 77% 0.00in /  0mm
07:10 7.4 °F /  -13.7 °C 1.7 °F /  -16.8 °C 30.76in /  1041.5hPa SE 1.0mph /  1.6km/h 4.0mph /  6.4km/h 77% 0.00in /  0mm
07:15 7.6 °F /  -13.6 °C 1.9 °F /  -16.7 °C 30.76in /  1041.5hPa East 2.0mph /  3.2km/h 3.0mph /  4.8km/h 77% 0.00in /  0mm
07:20 7.8 °F /  -13.4 °C 1.8 °F /  -16.8 °C 30.76in /  1041.5hPa Calm   3.0mph /  4.8km/h 76% 0.00in /  0mm
07:24 8.0 °F /  -13.3 °C 2.0 °F /  -16.7 °C 30.76in /  1041.5hPa SE 1.0mph /  1.6km/h 4.0mph /  6.4km/h 76% 0.00in /  0mm
07:30 8.2 °F /  -13.2 °C 2.2 °F /  -16.6 °C 30.76in /  1041.5hPa ESE 2.0mph /  3.2km/h 6.0mph /  9.7km/h 76% 0.00in /  0mm
07:34 8.4 °F /  -13.1 °C 2.4 °F /  -16.4 °C 30.76in /  1041.5hPa SE 1.0mph /  1.6km/h 7.0mph /  11.3km/h 76% 0.00in /  0mm
07:39 8.6 °F /  -13 °C 2.3 °F /  -16.5 °C 30.76in /  1041.5hPa SSE 2.0mph /  3.2km/h 6.0mph /  9.7km/h 75% 0.00in /  0mm
07:44 9.0 °F /  -12.8 °C 2.7 °F /  -16.3 °C 30.76in /  1041.5hPa SE 1.0mph /  1.6km/h 5.0mph /  8km/h 75% 0.00in /  0mm
07:49 9.6 °F /  -12.4 °C 3.3 °F /  -15.9 °C 30.76in /  1041.5hPa ESE 3.0mph /  4.8km/h 5.0mph /  8km/h 75% 0.00in /  0mm
07:55 10.0 °F /  -12.2 °C 3.4 °F /  -15.9 °C 30.76in /  1041.5hPa ESE 2.0mph /  3.2km/h 7.0mph /  11.3km/h 74% 0.00in /  0mm
07:59 10.5 °F /  -11.9 °C 3.6 °F /  -15.8 °C 30.75in /  1041.2hPa ESE 3.0mph /  4.8km/h 6.0mph /  9.7km/h 73% 0.00in /  0mm
08:04 11.1 °F /  -11.6 °C 4.1 °F /  -15.5 °C 30.76in /  1041.5hPa East 5.0mph /  8km/h 7.0mph /  11.3km/h 73% 0.00in /  0mm
08:10 11.8 °F /  -11.2 °C 4.2 °F /  -15.4 °C 30.75in /  1041.2hPa East 1.0mph /  1.6km/h 7.0mph /  11.3km/h 71% 0.00in /  0mm
08:15 12.7 °F /  -10.7 °C 5.1 °F /  -14.9 °C 30.76in /  1041.5hPa ENE 2.0mph /  3.2km/h 7.0mph /  11.3km/h 71% 0.00in /  0mm
08:20 13.5 °F /  -10.3 °C 5.2 °F /  -14.9 °C 30.75in /  1041.2hPa ESE 3.0mph /  4.8km/h 6.0mph /  9.7km/h 69% 0.00in /  0mm
08:24 14.0 °F /  -10 °C 5.4 °F /  -14.8 °C 30.75in /  1041.2hPa East 3.0mph /  4.8km/h 7.0mph /  11.3km/h 68% 0.00in /  0mm
08:29 14.9 °F /  -9.5 °C 6.2 °F /  -14.3 °C 30.75in /  1041.2hPa East 2.0mph /  3.2km/h 7.0mph /  11.3km/h 68% 0.00in /  0mm
08:35 15.3 °F /  -9.3 °C 6.0 °F /  -14.4 °C 30.75in /  1041.2hPa East 3.0mph /  4.8km/h 10.0mph /  16.1km/h 66% 0.00in /  0mm
08:40 15.9 °F /  -8.9 °C 6.5 °F /  -14.2 °C 30.74in /  1040.9hPa East 3.0mph /  4.8km/h 10.0mph /  16.1km/h 66% 0.00in /  0mm
08:44 16.2 °F /  -8.8 °C 6.5 °F /  -14.2 °C 30.74in /  1040.9hPa East 2.0mph /  3.2km/h 10.0mph /  16.1km/h 65% 0.00in /  0mm
08:49 16.8 °F /  -8.4 °C 6.7 °F /  -14.1 °C 30.74in /  1040.9hPa ESE 4.0mph /  6.4km/h 9.0mph /  14.5km/h 64% 0.00in /  0mm
08:54 17.1 °F /  -8.3 °C 6.7 °F /  -14.1 °C 30.74in /  1040.9hPa East 4.0mph /  6.4km/h 9.0mph /  14.5km/h 63% 0.00in /  0mm
08:59 17.4 °F /  -8.1 °C 6.9 °F /  -13.9 °C 30.74in /  1040.9hPa ESE 5.0mph /  8km/h 10.0mph /  16.1km/h 63% 0.00in /  0mm
09:05 17.6 °F /  -8 °C 6.8 °F /  -14 °C 30.74in /  1040.9hPa ENE 5.0mph /  8km/h 13.0mph /  20.9km/h 62% 0.00in /  0mm
09:09 18.1 °F /  -7.7 °C 7.6 °F /  -13.6 °C 30.73in /  1040.5hPa ESE 7.0mph /  11.3km/h 11.0mph /  17.7km/h 63% 0.00in /  0mm
09:15 18.9 °F /  -7.3 °C 8.0 °F /  -13.3 °C 30.73in /  1040.5hPa ESE 1.0mph /  1.6km/h 9.0mph /  14.5km/h 62% 0.00in /  0mm
09:20 19.3 °F /  -7.1 °C 7.7 °F /  -13.5 °C 30.73in /  1040.5hPa SE 2.0mph /  3.2km/h 10.0mph /  16.1km/h 60% 0.00in /  0mm
09:25 19.7 °F /  -6.8 °C 8.0 °F /  -13.3 °C 30.73in /  1040.5hPa SE 4.0mph /  6.4km/h 10.0mph /  16.1km/h 60% 0.00in /  0mm
09:29 19.7 °F /  -6.8 °C 7.7 °F /  -13.5 °C 30.73in /  1040.5hPa ESE 5.0mph /  8km/h 10.0mph /  16.1km/h 59% 0.00in /  0mm
09:34 20.0 °F /  -6.7 °C 7.2 °F /  -13.8 °C 30.73in /  1040.5hPa East 5.0mph /  8km/h 10.0mph /  16.1km/h 57% 0.00in /  0mm
09:40 20.3 °F /  -6.5 °C 7.1 °F /  -13.8 °C 30.73in /  1040.5hPa East 5.0mph /  8km/h 11.0mph /  17.7km/h 56% 0.00in /  0mm
09:45 20.9 °F /  -6.2 °C 7.6 °F /  -13.6 °C 30.73in /  1040.5hPa East 5.0mph /  8km/h 11.0mph /  17.7km/h 56% 0.00in /  0mm
09:50 21.0 °F /  -6.1 °C 6.5 °F /  -14.2 °C 30.72in /  1040.2hPa East 5.0mph /  8km/h 10.0mph /  16.1km/h 53% 0.00in /  0mm
09:55 21.5 °F /  -5.8 °C 7.4 °F /  -13.7 °C 30.73in /  1040.5hPa East 5.0mph /  8km/h 11.0mph /  17.7km/h 54% 0.00in /  0mm
09:59 21.7 °F /  -5.7 °C 7.2 °F /  -13.8 °C 30.72in /  1040.2hPa East 2.0mph /  3.2km/h 11.0mph /  17.7km/h 53% 0.00in /  0mm
10:04 21.9 °F /  -5.6 °C 6.5 °F /  -14.2 °C 30.72in /  1040.2hPa ENE 7.0mph /  11.3km/h 11.0mph /  17.7km/h 51% 0.00in /  0mm
10:09 22.3 °F /  -5.4 °C 7.7 °F /  -13.5 °C 30.73in /  1040.5hPa East 8.0mph /  12.9km/h 8.0mph /  12.9km/h 53% 0.00in /  0mm
10:14 22.9 °F /  -5.1 °C 7.0 °F /  -13.9 °C 30.72in /  1040.2hPa East 5.0mph /  8km/h 8.0mph /  12.9km/h 50% 0.00in /  0mm
10:19 23.1 °F /  -4.9 °C 7.6 °F /  -13.6 °C 30.72in /  1040.2hPa ESE 4.0mph /  6.4km/h 11.0mph /  17.7km/h 51% 0.00in /  0mm
10:25 23.7 °F /  -4.6 °C 7.3 °F /  -13.7 °C 30.71in /  1039.8hPa NNE 2.0mph /  3.2km/h 10.0mph /  16.1km/h 49% 0.00in /  0mm
10:30 24.0 °F /  -4.4 °C 7.6 °F /  -13.6 °C 30.71in /  1039.8hPa SE 5.0mph /  8km/h 9.0mph /  14.5km/h 49% 0.00in /  0mm
10:34 24.2 °F /  -4.3 °C 6.8 °F /  -14 °C 30.71in /  1039.8hPa ESE 5.0mph /  8km/h 10.0mph /  16.1km/h 47% 0.00in /  0mm
10:39 24.5 °F /  -4.2 °C 7.6 °F /  -13.6 °C 30.71in /  1039.8hPa ESE 5.0mph /  8km/h 11.0mph /  17.7km/h 48% 0.00in /  0mm
10:44 24.3 °F /  -4.3 °C 6.5 °F /  -14.2 °C 30.71in /  1039.8hPa East 5.0mph /  8km/h 11.0mph /  17.7km/h 46% 0.00in /  0mm
10:49 24.5 °F /  -4.2 °C 6.2 °F /  -14.3 °C 30.71in /  1039.8hPa East 6.0mph /  9.7km/h 13.0mph /  20.9km/h 45% 0.00in /  0mm
10:54 25.0 °F /  -3.9 °C 6.6 °F /  -14.1 °C 30.70in /  1039.5hPa ENE 5.0mph /  8km/h 11.0mph /  17.7km/h 45% 0.00in /  0mm
10:59 24.9 °F /  -3.9 °C 6.0 °F /  -14.4 °C 30.70in /  1039.5hPa ESE 3.0mph /  4.8km/h 10.0mph /  16.1km/h 44% 0.00in /  0mm
11:04 25.7 °F /  -3.5 °C 6.3 °F /  -14.3 °C 30.69in /  1039.2hPa East 3.0mph /  4.8km/h 11.0mph /  17.7km/h 43% 0.00in /  0mm
11:09 25.8 °F /  -3.4 °C 5.8 °F /  -14.6 °C 30.69in /  1039.2hPa East 5.0mph /  8km/h 14.0mph /  22.5km/h 42% 0.00in /  0mm
11:14 26.1 °F /  -3.3 °C 7.1 °F /  -13.8 °C 30.69in /  1039.2hPa NNE 9.0mph /  14.5km/h 10.0mph /  16.1km/h 44% 0.00in /  0mm
11:19 26.5 °F /  -3.1 °C 6.5 °F /  -14.2 °C 30.68in /  1038.8hPa NE 5.0mph /  8km/h 14.0mph /  22.5km/h 42% 0.00in /  0mm
11:24 27.1 °F /  -2.7 °C 7.5 °F /  -13.6 °C 30.67in /  1038.5hPa ENE 7.0mph /  11.3km/h 10.0mph /  16.1km/h 43% 0.00in /  0mm
11:29 26.8 °F /  -2.9 °C 5.7 °F /  -14.6 °C 30.67in /  1038.5hPa NE 2.0mph /  3.2km/h 12.0mph /  19.3km/h 40% 0.00in /  0mm
11:34 28.1 °F /  -2.2 °C 9.0 °F /  -12.8 °C 30.67in /  1038.5hPa SE 2.0mph /  3.2km/h 9.0mph /  14.5km/h 44% 0.00in /  0mm
11:39 28.7 °F /  -1.8 °C 9.0 °F /  -12.8 °C 30.66in /  1038.1hPa East 4.0mph /  6.4km/h 9.0mph /  14.5km/h 43% 0.00in /  0mm
11:44 28.0 °F /  -2.2 °C 7.8 °F /  -13.4 °C 30.66in /  1038.1hPa ENE 5.0mph /  8km/h 13.0mph /  20.9km/h 42% 0.00in /  0mm
11:49 28.3 °F /  -2.1 °C 7.0 °F /  -13.9 °C 30.66in /  1038.1hPa East 6.0mph /  9.7km/h 13.0mph /  20.9km/h 40% 0.00in /  0mm
11:54 28.6 °F /  -1.9 °C 7.3 °F /  -13.7 °C 30.66in /  1038.1hPa East 5.0mph /  8km/h 10.0mph /  16.1km/h 40% 0.00in /  0mm
12:00 28.9 °F /  -1.7 °C 6.4 °F /  -14.2 °C 30.66in /  1038.1hPa East 5.0mph /  8km/h 11.0mph /  17.7km/h 38% 0.00in /  0mm
12:05 29.5 °F /  -1.4 °C 9.7 °F /  -12.4 °C 30.66in /  1038.1hPa ENE 5.0mph /  8km/h 11.0mph /  17.7km/h 43% 0.00in /  0mm
12:09 29.3 °F /  -1.5 °C 5.0 °F /  -15 °C 30.66in /  1038.1hPa East 1.0mph /  1.6km/h 9.0mph /  14.5km/h 35% 0.00in /  0mm
12:14 29.4 °F /  -1.4 °C 6.3 °F /  -14.3 °C 30.65in /  1037.8hPa ENE 4.0mph /  6.4km/h 15.0mph /  24.1km/h 37% 0.00in /  0mm
12:19 29.8 °F /  -1.2 °C 6.1 °F /  -14.4 °C 30.65in /  1037.8hPa ESE 8.0mph /  12.9km/h 9.0mph /  14.5km/h 36% 0.00in /  0mm
12:24 29.9 °F /  -1.2 °C 6.7 °F /  -14.1 °C 30.65in /  1037.8hPa SSE 5.0mph /  8km/h 10.0mph /  16.1km/h 37% 0.00in /  0mm
12:29 30.1 °F /  -1.1 °C 5.7 °F /  -14.6 °C 30.65in /  1037.8hPa ENE 7.0mph /  11.3km/h 9.0mph /  14.5km/h 35% 0.00in /  0mm
12:34 30.3 °F /  -0.9 °C 7.1 °F /  -13.8 °C 30.64in /  1037.5hPa NE 3.0mph /  4.8km/h 10.0mph /  16.1km/h 37% 0.00in /  0mm
12:39 30.1 °F /  -1.1 °C 4.4 °F /  -15.3 °C 30.64in /  1037.5hPa ESE 3.0mph /  4.8km/h 8.0mph /  12.9km/h 33% 0.00in /  0mm
12:44 30.6 °F /  -0.8 °C 5.5 °F /  -14.7 °C 30.64in /  1037.5hPa SE 4.0mph /  6.4km/h 7.0mph /  11.3km/h 34% 0.00in /  0mm
12:49 31.3 °F /  -0.4 °C 8.6 °F /  -13 °C 30.63in /  1037.1hPa ESE 4.0mph /  6.4km/h 11.0mph /  17.7km/h 38% 0.00in /  0mm
12:54 31.6 °F /  -0.2 °C 8.9 °F /  -12.8 °C 30.63in /  1037.1hPa ESE 4.0mph /  6.4km/h 11.0mph /  17.7km/h 38% 0.00in /  0mm
12:59 32.0 °F /  0 °C 7.4 °F /  -13.7 °C 30.63in /  1037.1hPa SE 3.0mph /  4.8km/h 8.0mph /  12.9km/h 35% 0.00in /  0mm
13:04 31.9 °F /  -0.1 °C 6.7 °F /  -14.1 °C 30.62in /  1036.8hPa SE 5.0mph /  8km/h 10.0mph /  16.1km/h 34% 0.00in /  0mm
13:10 31.6 °F /  -0.2 °C 5.7 °F /  -14.6 °C 30.62in /  1036.8hPa NE 3.0mph /  4.8km/h 7.0mph /  11.3km/h 33% 0.00in /  0mm
13:15 31.9 °F /  -0.1 °C 7.9 °F /  -13.4 °C 30.62in /  1036.8hPa SSE 2.0mph /  3.2km/h 5.0mph /  8km/h 36% 0.00in /  0mm
13:19 32.4 °F /  0.2 °C 5.8 °F /  -14.6 °C 30.61in /  1036.5hPa ESE 3.0mph /  4.8km/h 9.0mph /  14.5km/h 32% 0.00in /  0mm
13:24 33.0 °F /  0.6 °C 6.3 °F /  -14.3 °C 30.60in /  1036.1hPa East 2.0mph /  3.2km/h 8.0mph /  12.9km/h 32% 0.00in /  0mm
13:29 33.5 °F /  0.8 °C 3.8 °F /  -15.7 °C 30.60in /  1036.1hPa SSE 4.0mph /  6.4km/h 9.0mph /  14.5km/h 28% 0.00in /  0mm
13:34 33.5 °F /  0.8 °C 6.0 °F /  -14.4 °C 30.60in /  1036.1hPa SE 4.0mph /  6.4km/h 9.0mph /  14.5km/h 31% 0.00in /  0mm
13:39 33.1 °F /  0.6 °C 5.7 °F /  -14.6 °C 30.60in /  1036.1hPa East 3.0mph /  4.8km/h 10.0mph /  16.1km/h 31% 0.00in /  0mm
13:44 32.7 °F /  0.4 °C 4.6 °F /  -15.2 °C 30.60in /  1036.1hPa South 2.0mph /  3.2km/h 8.0mph /  12.9km/h 30% 0.00in /  0mm
13:49 33.5 °F /  0.8 °C 4.6 °F /  -15.2 °C 30.59in /  1035.8hPa East 4.0mph /  6.4km/h 8.0mph /  12.9km/h 29% 0.00in /  0mm
13:54 33.0 °F /  0.6 °C 4.1 °F /  -15.5 °C 30.59in /  1035.8hPa East 4.0mph /  6.4km/h 10.0mph /  16.1km/h 29% 0.00in /  0mm
13:59 33.9 °F /  1.1 °C 6.4 °F /  -14.2 °C 30.59in /  1035.8hPa ESE 3.0mph /  4.8km/h 10.0mph /  16.1km/h 31% 0.00in /  0mm
14:04 33.5 °F /  0.8 °C 5.3 °F /  -14.8 °C 30.58in /  1035.4hPa East 3.0mph /  4.8km/h 9.0mph /  14.5km/h 30% 0.00in /  0mm
14:09 33.9 °F /  1.1 °C 7.1 °F /  -13.8 °C 30.58in /  1035.4hPa East 2.0mph /  3.2km/h 6.0mph /  9.7km/h 32% 0.00in /  0mm
14:14 34.9 °F /  1.6 °C 8.0 °F /  -13.3 °C 30.58in /  1035.4hPa East 6.0mph /  9.7km/h 6.0mph /  9.7km/h 32% 0.00in /  0mm
14:20 34.1 °F /  1.2 °C 5.1 °F /  -14.9 °C 30.58in /  1035.4hPa ESE 4.0mph /  6.4km/h 10.0mph /  16.1km/h 29% 0.00in /  0mm
14:24 33.5 °F /  0.8 °C 6.0 °F /  -14.4 °C 30.57in /  1035.1hPa ENE 5.0mph /  8km/h 10.0mph /  16.1km/h 31% 0.00in /  0mm
14:29 33.5 °F /  0.8 °C 6.0 °F /  -14.4 °C 30.57in /  1035.1hPa ENE 4.0mph /  6.4km/h 8.0mph /  12.9km/h 31% 0.00in /  0mm
14:34 34.2 °F /  1.2 °C 7.4 °F /  -13.7 °C 30.57in /  1035.1hPa ENE 3.0mph /  4.8km/h 8.0mph /  12.9km/h 32% 0.00in /  0mm
14:39 33.8 °F /  1 °C 7.0 °F /  -13.9 °C 30.57in /  1035.1hPa NE 1.0mph /  1.6km/h 7.0mph /  11.3km/h 32% 0.00in /  0mm
14:44 33.9 °F /  1.1 °C 7.1 °F /  -13.8 °C 30.57in /  1035.1hPa East 5.0mph /  8km/h 8.0mph /  12.9km/h 32% 0.00in /  0mm
14:49 33.5 °F /  0.8 °C 5.3 °F /  -14.8 °C 30.57in /  1035.1hPa ENE 2.0mph /  3.2km/h 8.0mph /  12.9km/h 30% 0.00in /  0mm
14:54 34.4 °F /  1.3 °C 7.5 °F /  -13.6 °C 30.56in /  1034.8hPa East 2.0mph /  3.2km/h 6.0mph /  9.7km/h 32% 0.00in /  0mm
14:59 34.8 °F /  1.6 °C 7.2 °F /  -13.8 °C 30.56in /  1034.8hPa ESE 4.0mph /  6.4km/h 7.0mph /  11.3km/h 31% 0.00in /  0mm
15:04 35.0 °F /  1.7 °C 8.1 °F /  -13.3 °C 30.56in /  1034.8hPa SE 4.0mph /  6.4km/h 8.0mph /  12.9km/h 32% 0.00in /  0mm
15:09 34.7 °F /  1.5 °C 6.4 °F /  -14.2 °C 30.56in /  1034.8hPa NE 4.0mph /  6.4km/h 6.0mph /  9.7km/h 30% 0.00in /  0mm
15:14 34.3 °F /  1.3 °C 7.4 °F /  -13.7 °C 30.55in /  1034.4hPa East 2.0mph /  3.2km/h 7.0mph /  11.3km/h 32% 0.00in /  0mm
15:19 34.1 °F /  1.2 °C 6.6 °F /  -14.1 °C 30.55in /  1034.4hPa NNE 3.0mph /  4.8km/h 5.0mph /  8km/h 31% 0.00in /  0mm
15:24 34.5 °F /  1.4 °C 8.3 °F /  -13.2 °C 30.56in /  1034.8hPa ENE 2.0mph /  3.2km/h 6.0mph /  9.7km/h 33% 0.00in /  0mm
15:29 34.3 °F /  1.3 °C 8.1 °F /  -13.3 °C 30.56in /  1034.8hPa NE 3.0mph /  4.8km/h 6.0mph /  9.7km/h 33% 0.00in /  0mm
15:34 35.0 °F /  1.7 °C 8.1 °F /  -13.3 °C 30.55in /  1034.4hPa ENE 3.0mph /  4.8km/h 5.0mph /  8km/h 32% 0.00in /  0mm
15:39 35.0 °F /  1.7 °C 6.6 °F /  -14.1 °C 30.55in /  1034.4hPa ENE 2.0mph /  3.2km/h 5.0mph /  8km/h 30% 0.00in /  0mm
15:44 34.8 °F /  1.6 °C 8.6 °F /  -13 °C 30.55in /  1034.4hPa NNE 2.0mph /  3.2km/h 5.0mph /  8km/h 33% 0.00in /  0mm
15:49 34.9 °F /  1.6 °C 8.0 °F /  -13.3 °C 30.55in /  1034.4hPa NNE 3.0mph /  4.8km/h 7.0mph /  11.3km/h 32% 0.00in /  0mm
15:55 34.9 °F /  1.6 °C 8.0 °F /  -13.3 °C 30.55in /  1034.4hPa ENE 1.0mph /  1.6km/h 5.0mph /  8km/h 32% 0.00in /  0mm
15:59 35.2 °F /  1.8 °C 8.2 °F /  -13.2 °C 30.54in /  1034.1hPa NE 2.0mph /  3.2km/h 6.0mph /  9.7km/h 32% 0.00in /  0mm
16:04 35.2 °F /  1.8 °C 7.5 °F /  -13.6 °C 30.54in /  1034.1hPa East 2.0mph /  3.2km/h 6.0mph /  9.7km/h 31% 0.00in /  0mm
16:09 35.5 °F /  1.9 °C 7.8 °F /  -13.4 °C 30.54in /  1034.1hPa NE 1.0mph /  1.6km/h 8.0mph /  12.9km/h 31% 0.00in /  0mm
16:14 35.5 °F /  1.9 °C 8.5 °F /  -13.1 °C 30.54in /  1034.1hPa East 3.0mph /  4.8km/h 8.0mph /  12.9km/h 32% 0.00in /  0mm
16:19 35.5 °F /  1.9 °C 7.8 °F /  -13.4 °C 30.54in /  1034.1hPa NE 3.0mph /  4.8km/h 6.0mph /  9.7km/h 31% 0.00in /  0mm
16:24 36.2 °F /  2.3 °C 7.7 °F /  -13.5 °C 30.54in /  1034.1hPa SE 3.0mph /  4.8km/h 5.0mph /  8km/h 30% 0.00in /  0mm
16:29 36.9 °F /  2.7 °C 8.3 °F /  -13.2 °C 30.53in /  1033.7hPa East 2.0mph /  3.2km/h 7.0mph /  11.3km/h 30% 0.00in /  0mm
16:34 36.7 °F /  2.6 °C 6.6 °F /  -14.1 °C 30.53in /  1033.7hPa East 3.0mph /  4.8km/h 8.0mph /  12.9km/h 28% 0.00in /  0mm
16:39 36.3 °F /  2.4 °C 7.0 °F /  -13.9 °C 30.52in /  1033.4hPa ENE 5.0mph /  8km/h 7.0mph /  11.3km/h 29% 0.00in /  0mm
16:44 36.1 °F /  2.3 °C 7.6 °F /  -13.6 °C 30.52in /  1033.4hPa ENE 4.0mph /  6.4km/h 9.0mph /  14.5km/h 30% 0.00in /  0mm
16:49 35.9 °F /  2.2 °C 5.9 °F /  -14.5 °C 30.52in /  1033.4hPa SE 5.0mph /  8km/h 8.0mph /  12.9km/h 28% 0.00in /  0mm
16:54 36.0 °F /  2.2 °C 7.5 °F /  -13.6 °C 30.51in /  1033.1hPa ENE 4.0mph /  6.4km/h 7.0mph /  11.3km/h 30% 0.00in /  0mm
16:59 35.9 °F /  2.2 °C 7.4 °F /  -13.7 °C 30.51in /  1033.1hPa ENE 3.0mph /  4.8km/h 7.0mph /  11.3km/h 30% 0.00in /  0mm
17:04 35.9 °F /  2.2 °C 8.2 °F /  -13.2 °C 30.50in /  1032.7hPa ENE 3.0mph /  4.8km/h 8.0mph /  12.9km/h 31% 0.00in /  0mm
17:09 35.8 °F /  2.1 °C 8.1 °F /  -13.3 °C 30.50in /  1032.7hPa ENE 4.0mph /  6.4km/h 9.0mph /  14.5km/h 31% 0.00in /  0mm
17:14 35.6 °F /  2 °C 8.6 °F /  -13 °C 30.50in /  1032.7hPa ENE 4.0mph /  6.4km/h 9.0mph /  14.5km/h 32% 0.00in /  0mm
17:19 35.4 °F /  1.9 °C 8.4 °F /  -13.1 °C 30.50in /  1032.7hPa ESE 8.0mph /  12.9km/h 9.0mph /  14.5km/h 32% 0.00in /  0mm
17:24 35.0 °F /  1.7 °C 8.7 °F /  -12.9 °C 30.50in /  1032.7hPa ENE 2.0mph /  3.2km/h 8.0mph /  12.9km/h 33% 0.00in /  0mm
17:29 34.8 °F /  1.6 °C 8.6 °F /  -13 °C 30.51in /  1033.1hPa ENE 3.0mph /  4.8km/h 6.0mph /  9.7km/h 33% 0.00in /  0mm
17:34 34.6 °F /  1.4 °C 9.1 °F /  -12.7 °C 30.50in /  1032.7hPa ENE 3.0mph /  4.8km/h 6.0mph /  9.7km/h 34% 0.00in /  0mm
17:39 34.5 °F /  1.4 °C 10.9 °F /  -11.7 °C 30.51in /  1033.1hPa ENE 3.0mph /  4.8km/h 8.0mph /  12.9km/h 37% 0.00in /  0mm
17:44 34.3 °F /  1.3 °C 10.7 °F /  -11.8 °C 30.50in /  1032.7hPa ENE 7.0mph /  11.3km/h 8.0mph /  12.9km/h 37% 0.00in /  0mm
17:49 34.2 °F /  1.2 °C 11.2 °F /  -11.6 °C 30.50in /  1032.7hPa NNE 2.0mph /  3.2km/h 8.0mph /  12.9km/h 38% 0.00in /  0mm
17:54 33.8 °F /  1 °C 14.2 °F /  -9.9 °C 30.50in /  1032.7hPa NE 4.0mph /  6.4km/h 5.0mph /  8km/h 44% 0.00in /  0mm
17:59 33.3 °F /  0.7 °C 14.2 °F /  -9.9 °C 30.50in /  1032.7hPa NE 3.0mph /  4.8km/h 8.0mph /  12.9km/h 45% 0.00in /  0mm
18:04 32.6 °F /  0.3 °C 14.6 °F /  -9.7 °C 30.50in /  1032.7hPa NE 4.0mph /  6.4km/h 8.0mph /  12.9km/h 47% 0.00in /  0mm
18:09 32.1 °F /  0.1 °C 14.6 °F /  -9.7 °C 30.50in /  1032.7hPa NE 4.0mph /  6.4km/h 7.0mph /  11.3km/h 48% 0.00in /  0mm
18:14 31.7 °F /  -0.2 °C 14.7 °F /  -9.6 °C 30.50in /  1032.7hPa NE 4.0mph /  6.4km/h 7.0mph /  11.3km/h 49% 0.00in /  0mm
18:19 31.3 °F /  -0.4 °C 14.8 °F /  -9.6 °C 30.50in /  1032.7hPa NE 5.0mph /  8km/h 9.0mph /  14.5km/h 50% 0.00in /  0mm
18:24 30.9 °F /  -0.6 °C 14.9 °F /  -9.5 °C 30.50in /  1032.7hPa NE 7.0mph /  11.3km/h 9.0mph /  14.5km/h 51% 0.00in /  0mm
18:29 30.6 °F /  -0.8 °C 14.6 °F /  -9.7 °C 30.50in /  1032.7hPa NE 4.0mph /  6.4km/h 7.0mph /  11.3km/h 51% 0.00in /  0mm
18:34 30.4 °F /  -0.9 °C 14.9 °F /  -9.5 °C 30.50in /  1032.7hPa NE 5.0mph /  8km/h 8.0mph /  12.9km/h 52% 0.00in /  0mm
18:39 30.3 °F /  -0.9 °C 14.8 °F /  -9.6 °C 30.50in /  1032.7hPa NE 4.0mph /  6.4km/h 9.0mph /  14.5km/h 52% 0.00in /  0mm
18:44 30.1 °F /  -1.1 °C 14.6 °F /  -9.7 °C 30.50in /  1032.7hPa NE 4.0mph /  6.4km/h 9.0mph /  14.5km/h 52% 0.00in /  0mm
18:49 30.0 °F /  -1.1 °C 14.9 °F /  -9.5 °C 30.50in /  1032.7hPa NE 4.0mph /  6.4km/h 9.0mph /  14.5km/h 53% 0.00in /  0mm
18:54 29.9 °F /  -1.2 °C 14.4 °F /  -9.8 °C 30.50in /  1032.7hPa ENE 4.0mph /  6.4km/h 8.0mph /  12.9km/h 52% 0.00in /  0mm
18:59 29.8 °F /  -1.2 °C 13.9 °F /  -10.1 °C 30.50in /  1032.7hPa ENE 5.0mph /  8km/h 7.0mph /  11.3km/h 51% 0.00in /  0mm
19:04 29.8 °F /  -1.2 °C 13.9 °F /  -10.1 °C 30.49in /  1032.4hPa ENE 3.0mph /  4.8km/h 8.0mph /  12.9km/h 51% 0.00in /  0mm
19:09 29.7 °F /  -1.3 °C 13.8 °F /  -10.1 °C 30.49in /  1032.4hPa ENE 4.0mph /  6.4km/h 10.0mph /  16.1km/h 51% 0.00in /  0mm
19:14 29.7 °F /  -1.3 °C 13.8 °F /  -10.1 °C 30.49in /  1032.4hPa ENE 3.0mph /  4.8km/h 10.0mph /  16.1km/h 51% 0.00in /  0mm
19:19 29.6 °F /  -1.3 °C 13.7 °F /  -10.2 °C 30.48in /  1032.1hPa NE 4.0mph /  6.4km/h 7.0mph /  11.3km/h 51% 0.00in /  0mm
19:24 29.5 °F /  -1.4 °C 13.6 °F /  -10.2 °C 30.48in /  1032.1hPa East 7.0mph /  11.3km/h 9.0mph /  14.5km/h 51% 0.00in /  0mm
19:29 29.4 °F /  -1.4 °C 13.5 °F /  -10.3 °C 30.48in /  1032.1hPa ENE 3.0mph /  4.8km/h 7.0mph /  11.3km/h 51% 0.00in /  0mm
19:34 29.3 °F /  -1.5 °C 13.8 °F /  -10.1 °C 30.48in /  1032.1hPa East 1.0mph /  1.6km/h 8.0mph /  12.9km/h 52% 0.00in /  0mm
19:39 29.2 °F /  -1.6 °C 13.7 °F /  -10.2 °C 30.48in /  1032.1hPa ENE 3.0mph /  4.8km/h 9.0mph /  14.5km/h 52% 0.00in /  0mm
19:44 29.0 °F /  -1.7 °C 14.0 °F /  -10 °C 30.47in /  1031.7hPa ENE 4.0mph /  6.4km/h 9.0mph /  14.5km/h 53% 0.00in /  0mm
19:49 28.9 °F /  -1.7 °C 13.9 °F /  -10.1 °C 30.47in /  1031.7hPa ENE 3.0mph /  4.8km/h 8.0mph /  12.9km/h 53% 0.00in /  0mm
19:54 28.8 °F /  -1.8 °C 14.2 °F /  -9.9 °C 30.47in /  1031.7hPa East 3.0mph /  4.8km/h 8.0mph /  12.9km/h 54% 0.00in /  0mm
19:59 28.7 °F /  -1.8 °C 14.1 °F /  -9.9 °C 30.47in /  1031.7hPa East 3.0mph /  4.8km/h 8.0mph /  12.9km/h 54% 0.00in /  0mm
20:04 28.6 °F /  -1.9 °C 14.0 °F /  -10 °C 30.47in /  1031.7hPa ENE 3.0mph /  4.8km/h 7.0mph /  11.3km/h 54% 0.00in /  0mm
20:09 28.5 °F /  -1.9 °C 13.9 °F /  -10.1 °C 30.46in /  1031.4hPa East 3.0mph /  4.8km/h 9.0mph /  14.5km/h 54% 0.00in /  0mm
20:14 28.5 °F /  -1.9 °C 13.9 °F /  -10.1 °C 30.46in /  1031.4hPa East 4.0mph /  6.4km/h 9.0mph /  14.5km/h 54% 0.00in /  0mm
20:19 28.4 °F /  -2 °C 13.9 °F /  -10.1 °C 30.45in /  1031hPa East 6.0mph /  9.7km/h 9.0mph /  14.5km/h 54% 0.00in /  0mm
20:24 28.3 °F /  -2.1 °C 14.2 °F /  -9.9 °C 30.45in /  1031hPa East 3.0mph /  4.8km/h 8.0mph /  12.9km/h 55% 0.00in /  0mm
20:29 28.2 °F /  -2.1 °C 14.1 °F /  -9.9 °C 30.45in /  1031hPa East 5.0mph /  8km/h 8.0mph /  12.9km/h 55% 0.00in /  0mm
20:34 28.1 °F /  -2.2 °C 14.0 °F /  -10 °C 30.45in /  1031hPa ENE 1.0mph /  1.6km/h 7.0mph /  11.3km/h 55% 0.00in /  0mm
20:39 28.0 °F /  -2.2 °C 14.3 °F /  -9.8 °C 30.45in /  1031hPa NNE 3.0mph /  4.8km/h 7.0mph /  11.3km/h 56% 0.00in /  0mm
20:44 27.9 °F /  -2.3 °C 14.2 °F /  -9.9 °C 30.45in /  1031hPa East 3.0mph /  4.8km/h 7.0mph /  11.3km/h 56% 0.00in /  0mm
20:49 27.8 °F /  -2.3 °C 14.1 °F /  -9.9 °C 30.44in /  1030.7hPa East 3.0mph /  4.8km/h 7.0mph /  11.3km/h 56% 0.00in /  0mm
20:54 27.7 °F /  -2.4 °C 14.0 °F /  -10 °C 30.44in /  1030.7hPa East 3.0mph /  4.8km/h 9.0mph /  14.5km/h 56% 0.00in /  0mm
20:59 27.7 °F /  -2.4 °C 14.4 °F /  -9.8 °C 30.44in /  1030.7hPa ENE 2.0mph /  3.2km/h 7.0mph /  11.3km/h 57% 0.00in /  0mm
21:04 27.8 °F /  -2.3 °C 14.5 °F /  -9.7 °C 30.43in /  1030.4hPa East 2.0mph /  3.2km/h 7.0mph /  11.3km/h 57% 0.00in /  0mm
21:09 27.8 °F /  -2.3 °C 14.5 °F /  -9.7 °C 30.43in /  1030.4hPa ESE 2.0mph /  3.2km/h 6.0mph /  9.7km/h 57% 0.00in /  0mm
21:14 27.8 °F /  -2.3 °C 14.5 °F /  -9.7 °C 30.43in /  1030.4hPa East 2.0mph /  3.2km/h 5.0mph /  8km/h 57% 0.00in /  0mm
21:19 27.8 °F /  -2.3 °C 14.1 °F /  -9.9 °C 30.43in /  1030.4hPa East 3.0mph /  4.8km/h 6.0mph /  9.7km/h 56% 0.00in /  0mm
21:24 27.9 °F /  -2.3 °C 14.2 °F /  -9.9 °C 30.42in /  1030hPa ENE 3.0mph /  4.8km/h 5.0mph /  8km/h 56% 0.00in /  0mm
21:29 27.9 °F /  -2.3 °C 14.2 °F /  -9.9 °C 30.43in /  1030.4hPa ENE 2.0mph /  3.2km/h 5.0mph /  8km/h 56% 0.00in /  0mm
21:34 27.8 °F /  -2.3 °C 14.1 °F /  -9.9 °C 30.43in /  1030.4hPa East 3.0mph /  4.8km/h 4.0mph /  6.4km/h 56% 0.00in /  0mm
21:39 27.7 °F /  -2.4 °C 14.0 °F /  -10 °C 30.42in /  1030hPa East 2.0mph /  3.2km/h 7.0mph /  11.3km/h 56% 0.00in /  0mm
21:44 27.8 °F /  -2.3 °C 14.5 °F /  -9.7 °C 30.42in /  1030hPa NE 2.0mph /  3.2km/h 5.0mph /  8km/h 57% 0.00in /  0mm
21:49 27.8 °F /  -2.3 °C 14.1 °F /  -9.9 °C 30.42in /  1030hPa ENE 3.0mph /  4.8km/h 6.0mph /  9.7km/h 56% 0.00in /  0mm
21:54 27.7 °F /  -2.4 °C 14.0 °F /  -10 °C 30.42in /  1030hPa ENE 3.0mph /  4.8km/h 6.0mph /  9.7km/h 56% 0.00in /  0mm
21:59 27.7 °F /  -2.4 °C 14.0 °F /  -10 °C 30.42in /  1030hPa ENE 2.0mph /  3.2km/h 5.0mph /  8km/h 56% 0.00in /  0mm
22:04 27.7 °F /  -2.4 °C 14.0 °F /  -10 °C 30.42in /  1030hPa ENE 2.0mph /  3.2km/h 5.0mph /  8km/h 56% 0.00in /  0mm
22:09 27.7 °F /  -2.4 °C 14.4 °F /  -9.8 °C 30.42in /  1030hPa NE 2.0mph /  3.2km/h 4.0mph /  6.4km/h 57% 0.00in /  0mm
22:14 27.7 °F /  -2.4 °C 14.4 °F /  -9.8 °C 30.42in /  1030hPa NE 2.0mph /  3.2km/h 4.0mph /  6.4km/h 57% 0.00in /  0mm
22:19 27.7 °F /  -2.4 °C 14.4 °F /  -9.8 °C 30.42in /  1030hPa NE 4.0mph /  6.4km/h 4.0mph /  6.4km/h 57% 0.00in /  0mm
22:24 27.7 °F /  -2.4 °C 14.4 °F /  -9.8 °C 30.41in /  1029.7hPa NE 3.0mph /  4.8km/h 5.0mph /  8km/h 57% 0.00in /  0mm
22:29 27.7 °F /  -2.4 °C 14.4 °F /  -9.8 °C 30.41in /  1029.7hPa ENE 1.0mph /  1.6km/h 5.0mph /  8km/h 57% 0.00in /  0mm
22:34 27.6 °F /  -2.4 °C 14.3 °F /  -9.8 °C 30.41in /  1029.7hPa NE 2.0mph /  3.2km/h 5.0mph /  8km/h 57% 0.00in /  0mm
22:39 27.5 °F /  -2.5 °C 14.6 °F /  -9.7 °C 30.41in /  1029.7hPa Calm   2.0mph /  3.2km/h 58% 0.00in /  0mm
22:44 27.5 °F /  -2.5 °C 14.6 °F /  -9.7 °C 30.41in /  1029.7hPa NE 1.0mph /  1.6km/h 3.0mph /  4.8km/h 58% 0.00in /  0mm
22:49 27.5 °F /  -2.5 °C 15.0 °F /  -9.4 °C 30.41in /  1029.7hPa Calm   2.0mph /  3.2km/h 59% 0.00in /  0mm
22:54 27.4 °F /  -2.6 °C 14.5 °F /  -9.7 °C 30.41in /  1029.7hPa Calm     58% 0.00in /  0mm
22:59 27.4 °F /  -2.6 °C 14.5 °F /  -9.7 °C 30.41in /  1029.7hPa Calm     58% 0.00in /  0mm
23:04 27.4 °F /  -2.6 °C 14.5 °F /  -9.7 °C 30.41in /  1029.7hPa Calm     58% 0.00in /  0mm
23:09 27.5 °F /  -2.5 °C 14.6 °F /  -9.7 °C 30.41in /  1029.7hPa Calm     58% 0.00in /  0mm
23:14 27.6 °F /  -2.4 °C 14.7 °F /  -9.6 °C 30.41in /  1029.7hPa Calm   2.0mph /  3.2km/h 58% 0.00in /  0mm
23:19 27.7 °F /  -2.4 °C 14.8 °F /  -9.6 °C 30.40in /  1029.3hPa Calm     58% 0.00in /  0mm
23:24 27.7 °F /  -2.4 °C 14.8 °F /  -9.6 °C 30.40in /  1029.3hPa Calm     58% 0.00in /  0mm
23:29 27.7 °F /  -2.4 °C 14.8 °F /  -9.6 °C 30.40in /  1029.3hPa Calm     58% 0.00in /  0mm
23:34 27.5 °F /  -2.5 °C 15.0 °F /  -9.4 °C 30.40in /  1029.3hPa Calm     59% 0.00in /  0mm
23:39 27.2 °F /  -2.7 °C 15.1 °F /  -9.4 °C 30.40in /  1029.3hPa Calm     60% 0.00in /  0mm
23:44 26.9 °F /  -2.8 °C 14.9 °F /  -9.5 °C 30.39in /  1029hPa Calm     60% 0.00in /  0mm
23:49 27.0 °F /  -2.8 °C 14.9 °F /  -9.5 °C 30.39in /  1029hPa Calm     60% 0.00in /  0mm
23:54 27.0 °F /  -2.8 °C 14.9 °F /  -9.5 °C 30.39in /  1029hPa Calm     60% 0.00in /  0mm
23:59 27.0 °F /  -2.8 °C 14.9 °F /  -9.5 °C 30.39in /  1029hPa Calm     60% 0.00in /  0mm
Buffalo, New York, USA
Compliments of Weather Underground - 2.5 mb